createdAt,value
2022-10-12T00:01:54.839Z,11.64
2022-10-12T00:04:22.563Z,11.67
2022-10-12T00:06:50.182Z,11.70
2022-10-12T00:09:17.855Z,11.75
2022-10-12T00:11:45.482Z,11.81
2022-10-12T00:14:14.592Z,11.86
2022-10-12T00:16:42.201Z,11.89
2022-10-12T00:19:14.196Z,11.93
2022-10-12T00:21:41.854Z,11.95
2022-10-12T00:24:10.884Z,12.00
2022-10-12T00:26:38.554Z,12.07
2022-10-12T00:29:06.250Z,12.14
2022-10-12T00:31:35.327Z,12.17
2022-10-12T00:34:04.773Z,12.21
2022-10-12T00:36:35.664Z,12.28
2022-10-12T00:39:06.583Z,12.30
2022-10-12T00:41:38.338Z,12.37
2022-10-12T00:44:36.388Z,12.40
2022-10-12T00:47:10.044Z,12.41
2022-10-12T00:49:38.207Z,12.39
2022-10-12T00:52:10.862Z,12.41
2022-10-12T00:54:42.808Z,12.42
2022-10-12T00:57:12.626Z,12.46
2022-10-12T00:59:45.372Z,12.43
2022-10-12T01:02:15.192Z,12.40
2022-10-12T01:04:43.515Z,12.41
2022-10-12T01:07:11.573Z,12.41
2022-10-12T01:09:39.255Z,12.41
2022-10-12T01:12:09.230Z,12.39
2022-10-12T01:14:37.151Z,12.41
2022-10-12T01:17:14.725Z,12.46
2022-10-12T01:20:23.034Z,12.41
2022-10-12T01:23:05.367Z,12.44
2022-10-12T01:25:43.186Z,12.48
2022-10-12T01:28:20.314Z,12.46
2022-10-12T01:30:58.225Z,12.43
2022-10-12T01:33:33.787Z,12.47
2022-10-12T01:36:06.359Z,12.42
2022-10-12T01:38:42.615Z,12.41
2022-10-12T01:41:17.110Z,12.43
2022-10-12T01:43:46.739Z,12.41
2022-10-12T01:46:47.346Z,12.36
2022-10-12T01:49:18.097Z,12.41
2022-10-12T01:51:59.497Z,12.40
2022-10-12T01:54:35.690Z,12.40
2022-10-12T01:57:09.212Z,12.42
2022-10-12T01:59:48.047Z,12.42
2022-10-12T02:02:27.082Z,12.41
2022-10-12T02:05:03.725Z,12.44
2022-10-12T02:07:42.280Z,12.41
2022-10-12T02:10:16.675Z,12.38
2022-10-12T02:12:46.872Z,12.39
2022-10-12T02:15:16.503Z,12.39
2022-10-12T02:17:49.026Z,12.40
2022-10-12T02:20:19.342Z,12.41
2022-10-12T02:22:49.803Z,12.44
2022-10-12T02:25:21.666Z,12.40
2022-10-12T02:27:53.598Z,12.41
2022-10-12T02:30:21.489Z,12.38
2022-10-12T02:32:55.368Z,12.41
2022-10-12T02:35:28.942Z,12.41
2022-10-12T02:38:02.362Z,12.40
2022-10-12T02:40:35.628Z,12.39
2022-10-12T02:43:11.142Z,12.34
2022-10-12T02:45:42.532Z,12.32
2022-10-12T02:48:14.819Z,12.28
2022-10-12T02:50:42.897Z,12.26
2022-10-12T02:53:12.612Z,12.20
2022-10-12T02:55:48.858Z,12.19
2022-10-12T02:58:17.127Z,12.21
2022-10-12T03:00:44.772Z,12.18
2022-10-12T03:03:14.152Z,12.18
2022-10-12T03:05:41.799Z,12.17
2022-10-12T03:08:09.441Z,12.15
2022-10-12T03:10:37.084Z,12.12
2022-10-12T03:13:05.161Z,12.08
2022-10-12T03:15:32.794Z,12.08
2022-10-12T03:18:00.697Z,12.06
2022-10-12T03:20:29.721Z,12.06
2022-10-12T03:22:57.421Z,12.04
2022-10-12T03:25:25.185Z,12.03
2022-10-12T03:27:52.848Z,12.06
2022-10-12T03:30:20.559Z,12.07
2022-10-12T03:32:48.429Z,12.12
2022-10-12T03:35:17.634Z,12.16
2022-10-12T03:37:46.660Z,12.14
2022-10-12T03:40:14.413Z,12.12
2022-10-12T03:42:42.030Z,12.11
2022-10-12T03:45:10.383Z,12.10
2022-10-12T03:47:38.516Z,12.12
2022-10-12T03:50:07.202Z,12.11
2022-10-12T03:52:35.038Z,12.12
2022-10-12T03:55:04.143Z,12.14
2022-10-12T03:57:31.784Z,12.16
2022-10-12T03:59:59.471Z,12.14
2022-10-12T04:02:27.127Z,12.17
2022-10-12T04:04:54.900Z,12.19
2022-10-12T04:07:22.568Z,12.19
2022-10-12T04:09:50.628Z,12.24
2022-10-12T04:12:19.631Z,12.23
2022-10-12T04:14:47.292Z,12.24
2022-10-12T04:17:16.175Z,12.24
2022-10-12T04:19:44.123Z,12.27
2022-10-12T04:22:12.152Z,12.27
2022-10-12T04:24:39.849Z,12.26
2022-10-12T04:27:07.558Z,12.26
2022-10-12T04:29:37.141Z,12.29
2022-10-12T04:32:08.779Z,12.29
2022-10-12T04:34:39.219Z,12.36
2022-10-12T04:37:06.970Z,12.38
2022-10-12T04:39:34.647Z,12.34
2022-10-12T04:42:02.354Z,12.28
2022-10-12T04:44:32.379Z,12.29
2022-10-12T04:47:01.609Z,12.28
2022-10-12T04:49:29.483Z,12.26
2022-10-12T04:51:57.096Z,12.29
2022-10-12T04:54:24.801Z,12.24
2022-10-12T04:56:52.404Z,12.24
2022-10-12T04:59:20.136Z,12.20
2022-10-12T05:01:47.803Z,12.17
2022-10-12T05:04:16.882Z,12.16
2022-10-12T05:06:44.546Z,12.20
2022-10-12T05:09:14.592Z,12.21
2022-10-12T05:11:44.613Z,12.20
2022-10-12T05:14:12.456Z,12.22
2022-10-12T05:16:40.151Z,12.22
2022-10-12T05:19:07.845Z,12.23
2022-10-12T05:21:37.089Z,12.26
2022-10-12T05:24:05.111Z,12.34
2022-10-12T05:26:32.769Z,12.36
2022-10-12T05:29:00.528Z,12.32
2022-10-12T05:31:28.243Z,12.28
2022-10-12T05:33:55.871Z,12.32
2022-10-12T05:36:23.529Z,12.32
2022-10-12T05:38:52.667Z,12.31
2022-10-12T05:41:20.344Z,12.31
2022-10-12T05:43:48.032Z,12.25
2022-10-12T05:46:15.681Z,12.26
2022-10-12T05:48:43.385Z,12.27
2022-10-12T05:51:11.117Z,12.25
2022-10-12T05:53:38.833Z,12.22
2022-10-12T05:56:08.219Z,12.23
2022-10-12T05:58:35.927Z,12.26
2022-10-12T06:01:07.901Z,12.26
2022-10-12T06:03:35.918Z,12.27
2022-10-12T06:06:04.523Z,12.25
2022-10-12T06:08:32.707Z,12.29
2022-10-12T06:11:00.553Z,12.33
2022-10-12T06:13:29.628Z,12.42
2022-10-12T06:15:58.085Z,12.38
2022-10-12T06:18:25.853Z,12.38
2022-10-12T06:21:21.023Z,12.39
2022-10-12T06:23:43.081Z,12.42
2022-10-12T06:26:10.726Z,12.42
2022-10-12T06:28:39.794Z,12.48
2022-10-12T06:31:07.549Z,12.55
2022-10-12T06:33:35.239Z,12.60
2022-10-12T06:36:03.077Z,12.64
2022-10-12T06:38:30.747Z,12.67
2022-10-12T06:40:58.383Z,12.73
2022-10-12T06:43:26.168Z,12.79
2022-10-12T06:46:00.156Z,12.79
2022-10-12T06:48:27.834Z,12.85
2022-10-12T06:50:55.707Z,12.93
2022-10-12T06:53:23.691Z,13.04
2022-10-12T06:55:51.341Z,13.12
2022-10-12T06:58:19.877Z,13.29
2022-10-12T07:00:47.548Z,13.43
2022-10-12T07:03:17.947Z,13.52
2022-10-12T07:05:45.730Z,13.61
2022-10-12T07:08:13.447Z,13.69
2022-10-12T07:10:41.146Z,13.73
2022-10-12T07:13:09.052Z,13.71
2022-10-12T07:15:36.715Z,13.78
2022-10-12T07:18:04.742Z,13.84
2022-10-12T07:20:33.808Z,13.93
2022-10-12T07:23:01.490Z,13.96
2022-10-12T07:25:29.222Z,14.02
2022-10-12T07:27:56.903Z,14.09
2022-10-12T07:30:24.652Z,14.16
2022-10-12T07:32:54.802Z,14.09
2022-10-12T07:35:22.524Z,14.13
2022-10-12T07:37:51.578Z,14.15
2022-10-12T07:40:19.273Z,14.21
2022-10-12T07:43:11.937Z,14.39
2022-10-12T07:45:34.632Z,14.48
2022-10-12T07:48:02.289Z,14.57
2022-10-12T07:50:29.995Z,14.61
2022-10-12T07:52:59.099Z,14.64
2022-10-12T07:55:26.880Z,14.68
2022-10-12T07:57:54.577Z,14.55
2022-10-12T08:00:22.373Z,14.47
2022-10-12T08:02:50.082Z,14.47
2022-10-12T08:05:21.108Z,14.50
2022-10-12T08:07:49.037Z,14.43
2022-10-12T08:10:18.969Z,14.32
2022-10-12T08:12:51.172Z,14.26
2022-10-12T08:15:20.102Z,14.26
2022-10-12T08:17:47.764Z,14.26
2022-10-12T08:20:15.639Z,14.28
2022-10-12T08:22:43.356Z,14.23
2022-10-12T08:25:11.150Z,14.22
2022-10-12T08:27:40.480Z,14.19
2022-10-12T08:30:09.474Z,14.23
2022-10-12T08:32:37.182Z,14.09
2022-10-12T08:35:05.435Z,13.97
2022-10-12T08:37:33.109Z,13.98
2022-10-12T08:40:03.370Z,13.89
2022-10-12T08:42:42.298Z,13.86
2022-10-12T08:45:30.607Z,13.78
2022-10-12T08:48:01.591Z,13.86
2022-10-12T08:50:33.965Z,13.89
2022-10-12T08:53:07.740Z,13.87
2022-10-12T08:55:40.702Z,13.91
2022-10-12T08:58:16.861Z,13.94
2022-10-12T09:00:49.944Z,14.06
2022-10-12T09:03:31.220Z,14.18
2022-10-12T09:06:08.968Z,14.27
2022-10-12T09:09:00.587Z,14.29
2022-10-12T09:11:40.591Z,14.36
2022-10-12T09:14:11.818Z,14.43
2022-10-12T09:16:45.176Z,14.47
2022-10-12T09:19:18.967Z,14.52
2022-10-12T09:21:49.509Z,14.62
2022-10-12T09:24:20.103Z,14.52
2022-10-12T09:26:51.530Z,14.57
2022-10-12T09:29:31.105Z,14.69
2022-10-12T09:32:24.946Z,14.59
2022-10-12T09:34:52.690Z,14.61
2022-10-12T09:37:22.727Z,14.66
2022-10-12T09:39:50.979Z,14.68
2022-10-12T09:42:18.674Z,14.68
2022-10-12T09:44:51.349Z,14.70
2022-10-12T09:47:29.779Z,14.72
2022-10-12T09:49:59.322Z,14.68
2022-10-12T09:52:30.886Z,14.72
2022-10-12T09:55:03.815Z,14.71
2022-10-12T09:57:35.210Z,14.72
2022-10-12T10:00:06.421Z,14.73
2022-10-12T10:02:49.427Z,14.73
2022-10-12T10:05:26.070Z,14.88
2022-10-12T10:07:54.403Z,15.06
2022-10-12T10:10:29.662Z,15.14
2022-10-12T10:13:01.274Z,15.31
2022-10-12T10:15:32.667Z,15.42
2022-10-12T10:18:03.961Z,15.73
2022-10-12T10:20:34.218Z,16.05
2022-10-12T10:23:04.704Z,16.26
2022-10-12T10:25:33.240Z,16.26
2022-10-12T10:28:21.439Z,16.54
2022-10-12T10:30:57.852Z,16.55
2022-10-12T10:33:27.468Z,16.75
2022-10-12T10:36:05.157Z,16.74
2022-10-12T10:38:46.014Z,16.91
2022-10-12T10:41:18.027Z,16.96
2022-10-12T10:43:48.302Z,16.97
2022-10-12T10:46:23.490Z,17.13
2022-10-12T10:48:56.504Z,16.90
2022-10-12T10:51:24.180Z,17.07
2022-10-12T10:53:52.502Z,17.03
2022-10-12T10:56:24.388Z,16.95
2022-10-12T10:58:56.320Z,16.96
2022-10-12T11:01:32.420Z,16.75
2022-10-12T11:04:04.435Z,16.93
2022-10-12T11:06:39.128Z,16.97
2022-10-12T11:09:12.007Z,17.07
2022-10-12T11:11:41.505Z,17.28
2022-10-12T11:14:16.078Z,17.62
2022-10-12T11:16:49.782Z,17.85
2022-10-12T11:19:36.622Z,17.95
2022-10-12T11:22:07.533Z,17.85
2022-10-12T11:24:42.992Z,18.12
2022-10-12T11:27:16.620Z,18.01
2022-10-12T11:29:44.631Z,18.10
2022-10-12T11:32:26.915Z,18.29
2022-10-12T11:34:59.269Z,18.64
2022-10-12T11:37:34.016Z,18.67
2022-10-12T11:40:03.990Z,18.45
2022-10-12T11:42:43.243Z,18.72
2022-10-12T11:45:21.804Z,18.80
2022-10-12T11:47:52.692Z,18.65
2022-10-12T11:50:30.443Z,18.06
2022-10-12T11:53:02.155Z,18.02
2022-10-12T11:55:55.629Z,17.73
2022-10-12T11:58:42.301Z,17.89
2022-10-12T12:01:44.502Z,17.51
2022-10-12T12:04:40.457Z,17.16
2022-10-12T12:07:47.330Z,17.24
2022-10-12T12:11:03.659Z,17.28
2022-10-12T12:13:31.967Z,17.20
2022-10-12T12:16:36.711Z,17.35
2022-10-12T12:19:26.633Z,17.31
2022-10-12T12:24:54.760Z,17.07
2022-10-12T12:27:29.635Z,17.11
2022-10-12T12:29:58.744Z,17.18
2022-10-12T12:32:27.965Z,17.22
2022-10-12T12:35:00.625Z,17.03
2022-10-12T12:37:35.591Z,16.94
2022-10-12T12:40:05.656Z,16.87
2022-10-12T12:42:35.381Z,16.97
2022-10-12T12:45:36.312Z,16.93
2022-10-12T12:50:36.670Z,16.87
2022-10-12T12:53:09.519Z,16.64
2022-10-12T12:55:51.058Z,16.60
2022-10-12T12:58:39.204Z,16.65
2022-10-12T13:01:25.918Z,16.60
2022-10-12T13:04:30.178Z,16.55
2022-10-12T13:07:27.020Z,16.60
2022-10-12T13:10:25.568Z,16.55
2022-10-12T13:13:20.514Z,16.48
2022-10-12T13:16:03.011Z,16.54
2022-10-12T13:18:50.681Z,16.58
2022-10-12T13:21:21.370Z,16.71
2022-10-12T13:23:51.355Z,16.80
2022-10-12T13:26:24.482Z,16.84
2022-10-12T13:28:55.190Z,16.92
2022-10-12T13:31:27.181Z,17.21
2022-10-12T13:34:02.146Z,17.36
2022-10-12T13:36:32.779Z,17.50
2022-10-12T13:39:08.621Z,17.52
2022-10-12T13:41:36.878Z,17.54
2022-10-12T13:44:07.978Z,17.40
2022-10-12T13:46:40.729Z,17.58
2022-10-12T13:49:16.738Z,17.54
2022-10-12T13:51:45.836Z,17.49
2022-10-12T13:54:19.856Z,17.41
2022-10-12T13:56:51.275Z,17.41
2022-10-12T13:59:23.383Z,17.16
2022-10-12T14:01:54.029Z,17.10
2022-10-12T14:04:21.900Z,17.12
2022-10-12T14:06:57.518Z,17.10
2022-10-12T14:09:25.896Z,17.21
2022-10-12T14:11:55.939Z,17.22
2022-10-12T14:14:32.226Z,17.13
2022-10-12T14:17:00.122Z,17.12
2022-10-12T14:19:37.249Z,17.12
2022-10-12T14:22:05.311Z,17.08
2022-10-12T14:24:35.788Z,16.96
2022-10-12T14:27:06.362Z,16.84
2022-10-12T14:29:41.365Z,16.83
2022-10-12T14:32:37.644Z,16.78
2022-10-12T14:35:12.486Z,16.79
2022-10-12T14:37:40.657Z,16.77
2022-10-12T14:40:29.869Z,16.60
2022-10-12T14:43:04.743Z,16.53
2022-10-12T14:45:34.140Z,16.43
2022-10-12T14:48:03.172Z,16.30
2022-10-12T14:50:32.323Z,16.25
2022-10-12T14:53:03.757Z,16.20
2022-10-12T14:55:34.076Z,16.19
2022-10-12T14:58:01.929Z,16.21
2022-10-12T15:00:31.911Z,16.28
2022-10-12T15:03:03.263Z,16.08
2022-10-12T15:05:33.567Z,16.02
2022-10-12T15:08:07.436Z,15.85
2022-10-12T15:10:36.453Z,15.86
2022-10-12T15:13:04.415Z,15.77
2022-10-12T15:15:37.249Z,15.61
2022-10-12T15:18:06.648Z,15.52
2022-10-12T15:20:35.149Z,15.42
2022-10-12T15:23:03.720Z,15.41
2022-10-12T15:25:40.030Z,15.38
2022-10-12T15:28:07.820Z,15.34
2022-10-12T15:30:52.115Z,15.28
2022-10-12T15:33:25.612Z,15.11
2022-10-12T15:35:53.470Z,15.07
2022-10-12T15:38:21.168Z,15.04
2022-10-12T15:40:51.060Z,15.08
2022-10-12T15:43:18.895Z,15.00
2022-10-12T15:45:46.789Z,14.98
2022-10-12T15:48:14.783Z,14.94
2022-10-12T15:50:46.242Z,14.90
2022-10-12T15:53:16.930Z,14.79
2022-10-12T15:55:44.852Z,14.80
2022-10-12T15:58:12.646Z,14.73
2022-10-12T16:00:40.621Z,14.63
2022-10-12T16:03:08.644Z,14.57
2022-10-12T16:05:38.330Z,14.50
2022-10-12T16:08:07.949Z,14.48
2022-10-12T16:10:39.430Z,14.43
2022-10-12T16:13:09.106Z,14.35
2022-10-12T16:15:37.348Z,14.28
2022-10-12T16:18:06.950Z,14.24
2022-10-12T16:20:37.763Z,14.17
2022-10-12T16:23:08.479Z,14.12
2022-10-12T16:25:36.852Z,14.07
2022-10-12T16:28:05.031Z,14.07
2022-10-12T16:30:33.306Z,14.06
2022-10-12T16:33:01.132Z,14.06
2022-10-12T16:35:29.199Z,14.03
2022-10-12T16:37:56.956Z,14.00
2022-10-12T16:40:26.190Z,13.94
2022-10-12T16:42:54.926Z,13.88
2022-10-12T16:45:23.165Z,13.84
2022-10-12T16:47:51.426Z,13.78
2022-10-12T16:50:19.731Z,13.77
2022-10-12T16:52:48.164Z,13.73
2022-10-12T16:55:16.678Z,13.73
2022-10-12T16:57:45.840Z,13.64
2022-10-12T17:00:17.242Z,13.61
2022-10-12T17:02:44.949Z,13.57
2022-10-12T17:05:14.610Z,13.53
2022-10-12T17:07:42.289Z,13.50
2022-10-12T17:10:10.748Z,13.49
2022-10-12T17:12:38.494Z,13.45
2022-10-12T17:15:08.772Z,13.46
2022-10-12T17:17:36.608Z,13.43
2022-10-12T17:20:04.874Z,13.41
2022-10-12T17:22:32.654Z,13.35
2022-10-12T17:25:00.457Z,13.29
2022-10-12T17:27:32.092Z,13.28
2022-10-12T17:30:00.454Z,13.22
2022-10-12T17:32:29.611Z,13.20
2022-10-12T17:34:57.285Z,13.18
2022-10-12T17:37:25.034Z,13.13
2022-10-12T17:39:52.869Z,13.08
2022-10-12T17:42:23.011Z,13.02
2022-10-12T17:44:50.872Z,12.97
2022-10-12T17:47:19.736Z,12.85
2022-10-12T17:49:49.083Z,12.74
2022-10-12T17:52:17.217Z,12.68
2022-10-12T17:54:45.243Z,12.51
2022-10-12T17:57:13.326Z,12.36
2022-10-12T17:59:41.175Z,12.20
2022-10-12T18:02:09.749Z,12.04
2022-10-12T18:04:37.637Z,11.90
2022-10-12T18:07:07.368Z,11.74
2022-10-12T18:09:35.225Z,11.63
2022-10-12T18:12:03.054Z,11.51
2022-10-12T18:14:30.770Z,11.41
2022-10-12T18:16:58.839Z,11.42
2022-10-12T18:19:26.679Z,11.39
2022-10-12T18:21:54.364Z,11.36
2022-10-12T18:24:23.423Z,11.31
2022-10-12T18:26:51.913Z,11.21
2022-10-12T18:29:19.822Z,11.11
2022-10-12T18:31:47.749Z,10.93
2022-10-12T18:34:15.594Z,10.77
2022-10-12T18:36:43.338Z,10.66
2022-10-12T18:39:11.150Z,10.67
2022-10-12T18:41:40.301Z,10.56
2022-10-12T18:44:09.130Z,10.46
2022-10-12T18:46:37.526Z,10.32
2022-10-12T18:49:08.038Z,10.31
2022-10-12T18:51:37.780Z,10.15
2022-10-12T18:54:06.134Z,10.08
2022-10-12T18:56:36.614Z,10.00
2022-10-12T18:59:06.018Z,9.89
2022-10-12T19:01:34.641Z,9.81
2022-10-12T19:04:03.249Z,9.73
2022-10-12T19:06:33.214Z,9.69
2022-10-12T19:09:01.861Z,9.58
2022-10-12T19:11:31.022Z,9.54
2022-10-12T19:14:00.584Z,9.46
2022-10-12T19:16:31.517Z,9.39
2022-10-12T19:19:01.692Z,9.32
2022-10-12T19:21:30.081Z,9.30
2022-10-12T19:23:58.267Z,9.28
2022-10-12T19:26:28.361Z,9.19
2022-10-12T19:28:57.453Z,9.19
2022-10-12T19:31:27.595Z,9.13
2022-10-12T19:33:58.332Z,9.05
2022-10-12T19:36:27.653Z,9.06
2022-10-12T19:38:56.729Z,9.07
2022-10-12T19:41:24.671Z,9.09
2022-10-12T19:43:53.225Z,9.07
2022-10-12T19:46:21.651Z,8.96
2022-10-12T19:48:50.925Z,8.95
2022-10-12T19:51:21.384Z,8.83
2022-10-12T19:53:49.583Z,8.76
2022-10-12T19:56:20.862Z,8.73
2022-10-12T19:58:50.435Z,8.62
2022-10-12T20:01:20.775Z,8.68
2022-10-12T20:03:50.683Z,8.59
2022-10-12T20:06:20.954Z,8.50
2022-10-12T20:08:49.654Z,8.42
2022-10-12T20:11:21.553Z,8.39
2022-10-12T20:13:52.371Z,8.32
2022-10-12T20:16:20.993Z,8.23
2022-10-12T20:18:49.628Z,8.19
2022-10-12T20:21:19.526Z,8.12
2022-10-12T20:23:49.405Z,8.08
2022-10-12T20:26:19.239Z,8.02
2022-10-12T20:28:47.481Z,8.00
2022-10-12T20:31:15.344Z,8.03
2022-10-12T20:33:43.391Z,7.99
2022-10-12T20:36:13.009Z,7.96
2022-10-12T20:38:40.885Z,7.89
2022-10-12T20:41:12.351Z,7.81
2022-10-12T20:43:44.131Z,7.75
2022-10-12T20:46:14.305Z,7.72
2022-10-12T20:48:42.518Z,7.71
2022-10-12T20:51:14.165Z,7.68
2022-10-12T20:53:42.164Z,7.68
2022-10-12T20:56:11.895Z,7.61
2022-10-12T20:58:39.718Z,7.54
2022-10-12T21:01:09.484Z,7.51
2022-10-12T21:03:37.875Z,7.43
2022-10-12T21:06:07.283Z,7.39
2022-10-12T21:08:35.653Z,7.35
2022-10-12T21:11:03.817Z,7.34
2022-10-12T21:13:34.163Z,7.40
2022-10-12T21:16:01.901Z,7.31
2022-10-12T21:18:34.005Z,7.23
2022-10-12T21:21:05.035Z,7.19
2022-10-12T21:23:32.938Z,7.21
2022-10-12T21:26:00.669Z,7.22
2022-10-12T21:28:28.488Z,7.22
2022-10-12T21:30:59.545Z,7.15
2022-10-12T21:33:28.346Z,7.13
2022-10-12T21:35:56.053Z,7.10
2022-10-12T21:38:24.060Z,7.07
2022-10-12T21:40:52.340Z,7.01
2022-10-12T21:43:20.144Z,6.96
2022-10-12T21:45:47.925Z,6.92
2022-10-12T21:48:16.993Z,6.88
2022-10-12T21:50:44.789Z,6.84
2022-10-12T21:53:13.701Z,6.81
2022-10-12T21:55:41.448Z,6.85
2022-10-12T21:58:09.149Z,6.83
2022-10-12T22:00:36.928Z,6.80
2022-10-12T22:03:04.786Z,6.81
2022-10-12T22:05:39.775Z,6.82
2022-10-12T22:08:07.830Z,6.78
2022-10-12T22:10:36.316Z,6.73
2022-10-12T22:13:04.084Z,6.71
2022-10-12T22:15:31.793Z,6.64
2022-10-12T22:18:00.627Z,6.63
2022-10-12T22:20:28.332Z,6.70
2022-10-12T22:22:57.551Z,6.67
2022-10-12T22:25:25.227Z,6.66
2022-10-12T22:27:52.967Z,6.62
2022-10-12T22:30:20.668Z,6.53
2022-10-12T22:32:48.653Z,6.51
2022-10-12T22:35:16.445Z,6.49
2022-10-12T22:37:44.128Z,6.50
2022-10-12T22:40:13.783Z,6.47
2022-10-12T22:42:41.527Z,6.53
2022-10-12T22:45:10.367Z,6.53
2022-10-12T22:47:38.048Z,6.44
2022-10-12T22:50:06.440Z,6.45
2022-10-12T22:52:34.504Z,6.41
2022-10-12T22:55:02.349Z,6.36
2022-10-12T22:57:32.298Z,6.32
2022-10-12T23:05:10.673Z,6.10
2022-10-12T23:07:38.378Z,6.08
2022-10-12T23:10:06.849Z,6.05
2022-10-12T23:12:34.547Z,6.08
2022-10-12T23:15:02.262Z,6.13
2022-10-12T23:17:29.924Z,6.15
2022-10-12T23:19:57.686Z,6.17
2022-10-12T23:22:26.773Z,6.13
2022-10-12T23:24:54.553Z,6.19
2022-10-12T23:27:22.446Z,6.17
2022-10-12T23:29:50.462Z,6.22
2022-10-12T23:32:18.710Z,6.16
2022-10-12T23:34:46.677Z,6.19
2022-10-12T23:37:14.362Z,6.11
2022-10-12T23:39:43.416Z,6.06
2022-10-12T23:42:11.122Z,6.08
2022-10-12T23:44:38.794Z,6.11
2022-10-12T23:47:06.582Z,6.07
2022-10-12T23:49:34.233Z,6.04
2022-10-12T23:52:01.956Z,6.08
2022-10-12T23:54:29.651Z,6.10
2022-10-12T23:56:58.676Z,6.07
2022-10-12T23:59:26.479Z,6.04
